createdAt,value
2023-01-25T00:04:46.442Z,11.00
2023-01-25T00:09:48.071Z,10.10
2023-01-25T00:14:49.795Z,10.88
2023-01-25T00:19:51.359Z,9.38
2023-01-25T00:24:52.936Z,9.90
2023-01-25T00:29:54.534Z,9.77
2023-01-25T00:34:56.100Z,10.77
2023-01-25T00:39:57.687Z,10.43
2023-01-25T00:44:59.279Z,9.80
2023-01-25T00:50:00.975Z,10.95
2023-01-25T00:55:02.978Z,10.60
2023-01-25T01:00:05.315Z,11.00
2023-01-25T01:05:07.754Z,10.02
2023-01-25T01:10:10.210Z,9.93
2023-01-25T01:15:12.015Z,10.63
2023-01-25T01:20:13.830Z,10.88
2023-01-25T01:25:15.437Z,11.73
2023-01-25T01:30:17.159Z,10.73
2023-01-25T01:35:18.756Z,11.55
2023-01-25T01:40:20.384Z,10.82
2023-01-25T01:46:01.030Z,12.48
2023-01-25T01:51:33.688Z,10.77
2023-01-25T01:56:59.381Z,10.25
2023-01-25T02:02:02.468Z,11.63
2023-01-25T02:07:27.275Z,11.15
2023-01-25T02:12:32.334Z,10.73
2023-01-25T02:17:37.465Z,9.65
2023-01-25T02:22:50.937Z,10.93
2023-01-25T02:28:30.472Z,10.57
2023-01-25T02:33:32.163Z,11.98
2023-01-25T02:38:37.179Z,11.48
2023-01-25T02:43:38.940Z,12.30
2023-01-25T02:48:40.570Z,11.63
2023-01-25T02:53:42.154Z,12.00
2023-01-25T02:58:44.377Z,12.30
2023-01-25T03:03:46.016Z,11.25
2023-01-25T03:08:47.982Z,11.60
2023-01-25T03:13:50.111Z,11.45
2023-01-25T03:18:54.404Z,11.30
2023-01-25T03:24:01.690Z,12.23
2023-01-25T03:29:10.544Z,12.05
2023-01-25T03:34:15.140Z,11.38
2023-01-25T03:39:18.248Z,11.90
2023-01-25T03:44:19.919Z,11.45
2023-01-25T03:49:22.226Z,11.70
2023-01-25T03:54:23.985Z,11.77
2023-01-25T03:59:25.781Z,11.52
2023-01-25T04:04:29.836Z,11.27
2023-01-25T04:09:32.018Z,11.40
2023-01-25T04:14:43.999Z,10.27
2023-01-25T04:19:51.270Z,11.83
2023-01-25T04:24:55.852Z,9.40
2023-01-25T04:29:58.025Z,10.52
2023-01-25T04:35:01.372Z,9.88
2023-01-25T04:40:05.612Z,8.65
2023-01-25T04:45:12.339Z,9.65
2023-01-25T04:50:14.446Z,10.40
2023-01-25T04:55:16.982Z,10.85
2023-01-25T05:00:20.046Z,11.57
2023-01-25T05:05:29.086Z,10.50
2023-01-25T05:10:30.910Z,11.13
2023-01-25T05:16:01.609Z,12.05
2023-01-25T05:21:03.420Z,12.00
2023-01-25T05:26:05.320Z,10.38
2023-01-25T05:31:07.543Z,10.45
2023-01-25T05:36:10.288Z,9.80
2023-01-25T05:41:13.088Z,9.95
2023-01-25T05:46:15.062Z,11.55
2023-01-25T05:51:16.863Z,12.15
2023-01-25T05:56:18.652Z,12.05
2023-01-25T06:01:20.886Z,11.85
2023-01-25T06:06:28.272Z,12.45
2023-01-25T06:11:29.907Z,12.10
2023-01-25T06:16:32.720Z,11.95
2023-01-25T06:21:57.099Z,11.85
2023-01-25T06:26:59.352Z,11.48
2023-01-25T06:32:00.959Z,11.38
2023-01-25T06:37:02.519Z,11.75
2023-01-25T06:42:04.246Z,11.38
2023-01-25T06:47:08.798Z,12.02
2023-01-25T06:52:10.344Z,12.75
2023-01-25T06:57:12.077Z,13.18
2023-01-25T07:02:16.482Z,12.98
2023-01-25T07:07:18.109Z,12.52
2023-01-25T07:12:19.759Z,14.43
2023-01-25T07:17:21.553Z,13.38
2023-01-25T07:22:23.112Z,15.05
2023-01-25T07:27:24.769Z,13.75
2023-01-25T07:32:26.284Z,13.52
2023-01-25T07:37:27.898Z,14.38
2023-01-25T07:42:29.460Z,14.48
2023-01-25T07:47:46.664Z,13.85
2023-01-25T07:52:48.352Z,13.30
2023-01-25T07:57:54.572Z,14.13
2023-01-25T08:02:56.177Z,11.52
2023-01-25T08:07:57.752Z,13.30
2023-01-25T08:12:59.471Z,15.07
2023-01-25T08:18:01.449Z,13.35
2023-01-25T08:23:03.121Z,12.52
2023-01-25T08:28:05.280Z,14.05
2023-01-25T08:33:06.912Z,14.68
2023-01-25T08:38:08.513Z,14.18
2023-01-25T08:43:10.301Z,15.63
2023-01-25T08:48:12.044Z,15.40
2023-01-25T08:53:13.617Z,14.32
2023-01-25T08:58:17.139Z,14.98
2023-01-25T09:03:18.816Z,14.20
2023-01-25T09:08:21.516Z,15.98
2023-01-25T09:13:23.031Z,16.50
2023-01-25T09:18:24.843Z,15.52
2023-01-25T09:23:26.658Z,14.95
2023-01-25T09:28:29.829Z,14.38
2023-01-25T09:33:34.697Z,15.93
2023-01-25T09:38:36.508Z,14.25
2023-01-25T09:43:44.695Z,14.80
2023-01-25T09:49:08.375Z,14.50
2023-01-25T09:54:11.948Z,14.00
2023-01-25T09:59:17.460Z,14.68
2023-01-25T10:04:28.418Z,14.02
2023-01-25T10:10:04.534Z,14.82
2023-01-25T10:15:24.550Z,14.80
2023-01-25T10:20:37.139Z,14.65
2023-01-25T10:26:01.451Z,15.45
2023-01-25T10:31:28.811Z,14.60
2023-01-25T10:36:31.135Z,14.75
2023-01-25T10:41:42.933Z,15.57
2023-01-25T10:46:51.884Z,12.90
2023-01-25T10:51:53.625Z,16.42
2023-01-25T10:56:57.147Z,15.15
2023-01-25T11:02:39.322Z,14.68
2023-01-25T11:07:40.865Z,13.55
2023-01-25T11:12:42.544Z,13.35
2023-01-25T11:17:44.089Z,13.25
2023-01-25T11:22:54.124Z,15.02
2023-01-25T11:28:25.615Z,13.77
2023-01-25T11:33:27.360Z,13.82
2023-01-25T11:38:29.451Z,14.70
2023-01-25T11:44:09.505Z,14.88
2023-01-25T11:49:16.966Z,14.18
2023-01-25T11:54:49.660Z,13.95
2023-01-25T12:00:17.161Z,14.10
2023-01-25T12:05:29.027Z,15.77
2023-01-25T12:11:12.164Z,14.02
2023-01-25T12:16:32.513Z,14.18
2023-01-25T12:22:00.397Z,15.65
2023-01-25T12:27:43.665Z,17.10
2023-01-25T12:33:08.944Z,14.95
2023-01-25T12:38:41.289Z,16.55
2023-01-25T12:43:52.551Z,14.55
2023-01-25T12:48:58.499Z,16.15
2023-01-25T12:54:06.136Z,16.87
2023-01-25T12:59:46.318Z,16.15
2023-01-25T13:05:16.159Z,16.38
2023-01-25T13:10:26.524Z,16.00
2023-01-25T13:15:40.100Z,16.38
2023-01-25T13:20:41.738Z,16.05
2023-01-25T13:25:43.484Z,18.10
2023-01-25T13:30:53.920Z,15.95
2023-01-25T13:35:55.546Z,15.32
2023-01-25T13:41:12.620Z,16.55
2023-01-25T13:46:18.248Z,16.98
2023-01-25T13:51:20.619Z,15.77
2023-01-25T13:56:32.303Z,16.55
2023-01-25T14:01:36.304Z,16.63
2023-01-25T14:06:40.227Z,16.58
2023-01-25T14:12:00.423Z,15.30
2023-01-25T14:17:10.478Z,17.65
2023-01-25T14:22:21.026Z,17.45
2023-01-25T14:27:22.900Z,16.77
2023-01-25T14:32:27.479Z,17.50
2023-01-25T14:37:29.126Z,15.52
2023-01-25T14:42:32.211Z,16.65
2023-01-25T14:47:33.792Z,15.73
2023-01-25T14:52:35.649Z,17.60
2023-01-25T14:57:40.374Z,17.83
2023-01-25T15:02:52.280Z,18.05
2023-01-25T15:07:56.170Z,16.60
2023-01-25T15:13:12.820Z,18.25
2023-01-25T15:18:41.188Z,15.73
2023-01-25T15:28:46.608Z,16.42
2023-01-25T15:33:48.281Z,19.83
2023-01-25T15:38:50.449Z,17.30
2023-01-25T15:43:52.027Z,28.55
2023-01-25T15:48:54.987Z,23.52
2023-01-25T15:53:56.559Z,18.40
2023-01-25T15:59:00.981Z,19.77
2023-01-25T16:04:02.726Z,23.60
2023-01-25T16:09:18.795Z,20.55
2023-01-25T16:14:21.374Z,16.47
2023-01-25T16:19:24.131Z,20.60
2023-01-25T16:24:25.844Z,22.77
2023-01-25T16:29:29.004Z,39.13
2023-01-25T16:34:30.612Z,22.08
2023-01-25T16:39:32.464Z,29.23
2023-01-25T16:44:34.064Z,21.25
2023-01-25T16:49:35.617Z,20.08
2023-01-25T16:54:37.431Z,19.92
2023-01-25T16:59:39.049Z,17.08
2023-01-25T17:04:40.690Z,18.02
2023-01-25T17:09:42.238Z,17.42
2023-01-25T17:14:43.791Z,17.45
2023-01-25T17:19:45.637Z,18.85
2023-01-25T17:24:47.228Z,17.50
2023-01-25T17:29:48.915Z,17.00
2023-01-25T17:34:50.472Z,15.90
2023-01-25T17:39:52.058Z,16.73
2023-01-25T17:44:53.623Z,18.50
2023-01-25T17:49:55.178Z,21.23
2023-01-25T17:54:56.766Z,18.90
2023-01-25T17:59:58.366Z,20.40
2023-01-25T18:04:59.911Z,20.23
2023-01-25T18:10:01.529Z,20.92
2023-01-25T18:15:04.578Z,18.67
2023-01-25T18:20:06.774Z,19.15
2023-01-25T18:25:33.955Z,19.38
2023-01-25T18:30:50.973Z,18.83
2023-01-25T18:35:52.597Z,19.92
2023-01-25T18:40:54.115Z,18.02
2023-01-25T18:45:57.444Z,17.48
2023-01-25T18:51:13.518Z,21.30
2023-01-25T18:56:17.756Z,17.33
2023-01-25T19:01:21.318Z,16.33
2023-01-25T19:06:24.548Z,17.38
2023-01-25T19:11:26.084Z,18.67
2023-01-25T19:16:27.645Z,17.63
2023-01-25T19:21:29.154Z,19.70
2023-01-25T19:26:30.881Z,17.45
2023-01-25T19:31:33.358Z,16.13
2023-01-25T19:36:37.458Z,15.93
2023-01-25T19:41:39.114Z,17.23
2023-01-25T19:46:41.399Z,21.05
2023-01-25T19:51:44.252Z,21.92
2023-01-25T19:56:48.279Z,16.88
2023-01-25T20:01:50.458Z,16.83
2023-01-25T20:06:52.306Z,18.92
2023-01-25T20:11:57.098Z,15.40
2023-01-25T20:16:58.633Z,18.02
2023-01-25T20:22:00.600Z,14.70
2023-01-25T20:27:04.266Z,14.57
2023-01-25T20:32:06.184Z,14.63
2023-01-25T20:37:07.944Z,14.57
2023-01-25T20:42:09.562Z,15.43
2023-01-25T20:47:11.182Z,14.40
2023-01-25T20:52:12.858Z,16.27
2023-01-25T20:57:14.462Z,16.25
2023-01-25T21:02:16.054Z,15.98
2023-01-25T21:07:17.677Z,16.05
2023-01-25T21:12:19.249Z,15.43
2023-01-25T21:17:20.797Z,14.57
2023-01-25T21:22:22.421Z,12.23
2023-01-25T21:27:24.080Z,10.20
2023-01-25T21:32:25.739Z,11.10
2023-01-25T21:37:29.038Z,10.70
2023-01-25T21:42:32.399Z,11.98
2023-01-25T21:47:34.202Z,11.60
2023-01-25T21:52:36.427Z,12.70
2023-01-25T21:57:38.126Z,11.70
2023-01-25T22:02:39.820Z,14.98
2023-01-25T22:07:41.339Z,12.18
2023-01-25T22:12:42.891Z,12.40
2023-01-25T22:17:44.619Z,13.23
2023-01-25T22:22:46.174Z,10.95
2023-01-25T22:27:58.387Z,12.00
2023-01-25T22:32:59.994Z,12.43
2023-01-25T22:38:01.554Z,12.52
2023-01-25T22:43:03.095Z,11.90
2023-01-25T22:48:04.797Z,11.07
2023-01-25T22:53:06.381Z,9.93
2023-01-25T22:58:09.310Z,10.40
2023-01-25T23:03:11.052Z,11.23
2023-01-25T23:08:12.646Z,10.32
2023-01-25T23:13:14.450Z,9.15
2023-01-25T23:18:15.993Z,12.70
2023-01-25T23:23:17.582Z,12.00
2023-01-25T23:28:19.194Z,13.15
2023-01-25T23:33:20.755Z,13.63
2023-01-25T23:38:22.298Z,14.05
2023-01-25T23:43:23.866Z,16.15
2023-01-25T23:48:25.586Z,17.35
2023-01-25T23:53:27.467Z,13.68
2023-01-25T23:58:29.964Z,13.90
